sensor_id;sensor_type;location;lat;lon;timestamp;temperature;humidity
19397;DHT22;9834;48.076;11.878;2023-04-03T00:02:09;1.90;99.90
19397;DHT22;9834;48.076;11.878;2023-04-03T00:04:37;1.90;99.90
19397;DHT22;9834;48.076;11.878;2023-04-03T00:07:04;2.00;99.90
19397;DHT22;9834;48.076;11.878;2023-04-03T00:09:33;2.00;99.90
19397;DHT22;9834;48.076;11.878;2023-04-03T00:12:01;1.90;99.90
19397;DHT22;9834;48.076;11.878;2023-04-03T00:14:29;1.90;99.90
19397;DHT22;9834;48.076;11.878;2023-04-03T00:16:56;2.00;99.90
19397;DHT22;9834;48.076;11.878;2023-04-03T00:19:24;2.00;99.90
19397;DHT22;9834;48.076;11.878;2023-04-03T00:21:51;2.00;99.90
19397;DHT22;9834;48.076;11.878;2023-04-03T00:24:19;2.10;99.90
19397;DHT22;9834;48.076;11.878;2023-04-03T00:26:48;2.10;99.90
19397;DHT22;9834;48.076;11.878;2023-04-03T00:29:16;2.00;99.90
19397;DHT22;9834;48.076;11.878;2023-04-03T00:31:43;2.00;99.90
19397;DHT22;9834;48.076;11.878;2023-04-03T00:34:11;2.00;99.90
19397;DHT22;9834;48.076;11.878;2023-04-03T00:36:38;2.00;99.90
19397;DHT22;9834;48.076;11.878;2023-04-03T00:39:06;2.10;99.90
19397;DHT22;9834;48.076;11.878;2023-04-03T00:41:33;2.10;99.90
19397;DHT22;9834;48.076;11.878;2023-04-03T00:47:08;2.10;99.90
19397;DHT22;9834;48.076;11.878;2023-04-03T00:49:36;2.10;99.90
19397;DHT22;9834;48.076;11.878;2023-04-03T00:52:05;2.10;99.90
19397;DHT22;9834;48.076;11.878;2023-04-03T00:54:35;2.20;99.90
19397;DHT22;9834;48.076;11.878;2023-04-03T00:57:03;2.10;99.90
19397;DHT22;9834;48.076;11.878;2023-04-03T00:59:33;2.10;99.90
19397;DHT22;9834;48.076;11.878;2023-04-03T01:02:02;2.10;99.90
19397;DHT22;9834;48.076;11.878;2023-04-03T01:04:33;2.10;99.90
19397;DHT22;9834;48.076;11.878;2023-04-03T01:07:03;2.10;99.90
19397;DHT22;9834;48.076;11.878;2023-04-03T01:09:32;2.10;99.90
19397;DHT22;9834;48.076;11.878;2023-04-03T01:12:13;2.00;99.90
19397;DHT22;9834;48.076;11.878;2023-04-03T01:14:42;2.00;99.90
19397;DHT22;9834;48.076;11.878;2023-04-03T01:17:27;2.00;99.90
19397;DHT22;9834;48.076;11.878;2023-04-03T01:20:23;2.10;99.90
19397;DHT22;9834;48.076;11.878;2023-04-03T01:23:06;2.10;99.90
19397;DHT22;9834;48.076;11.878;2023-04-03T01:25:39;2.10;99.90
19397;DHT22;9834;48.076;11.878;2023-04-03T01:28:10;2.10;99.90
19397;DHT22;9834;48.076;11.878;2023-04-03T01:30:45;2.10;99.90
19397;DHT22;9834;48.076;11.878;2023-04-03T01:33:16;2.10;99.90
19397;DHT22;9834;48.076;11.878;2023-04-03T01:35:44;2.10;99.90
19397;DHT22;9834;48.076;11.878;2023-04-03T01:38:11;2.10;99.90
19397;DHT22;9834;48.076;11.878;2023-04-03T01:40:39;2.20;99.90
19397;DHT22;9834;48.076;11.878;2023-04-03T01:43:06;2.20;99.90
19397;DHT22;9834;48.076;11.878;2023-04-03T01:45:34;2.20;99.90
19397;DHT22;9834;48.076;11.878;2023-04-03T01:48:01;2.20;99.90
19397;DHT22;9834;48.076;11.878;2023-04-03T01:50:32;2.20;99.90
19397;DHT22;9834;48.076;11.878;2023-04-03T01:53:00;2.20;99.90
19397;DHT22;9834;48.076;11.878;2023-04-03T01:55:27;2.20;99.90
19397;DHT22;9834;48.076;11.878;2023-04-03T01:57:54;2.20;99.90
19397;DHT22;9834;48.076;11.878;2023-04-03T02:00:22;2.20;99.90
19397;DHT22;9834;48.076;11.878;2023-04-03T02:02:50;2.20;99.90
19397;DHT22;9834;48.076;11.878;2023-04-03T02:05:17;2.20;99.90
19397;DHT22;9834;48.076;11.878;2023-04-03T02:07:46;2.20;99.90
19397;DHT22;9834;48.076;11.878;2023-04-03T02:10:14;2.20;99.90
19397;DHT22;9834;48.076;11.878;2023-04-03T02:12:42;2.20;99.90
19397;DHT22;9834;48.076;11.878;2023-04-03T02:15:09;2.20;99.90
19397;DHT22;9834;48.076;11.878;2023-04-03T02:17:37;2.20;99.90
19397;DHT22;9834;48.076;11.878;2023-04-03T02:20:05;2.20;99.90
19397;DHT22;9834;48.076;11.878;2023-04-03T02:22:34;2.20;99.90
19397;DHT22;9834;48.076;11.878;2023-04-03T02:25:03;2.20;99.90
19397;DHT22;9834;48.076;11.878;2023-04-03T02:27:30;2.20;99.90
19397;DHT22;9834;48.076;11.878;2023-04-03T02:29:58;2.20;99.90
19397;DHT22;9834;48.076;11.878;2023-04-03T02:32:26;2.20;99.90
19397;DHT22;9834;48.076;11.878;2023-04-03T02:34:53;2.30;99.90
19397;DHT22;9834;48.076;11.878;2023-04-03T02:37:21;2.30;99.90
19397;DHT22;9834;48.076;11.878;2023-04-03T02:39:48;2.30;99.90
19397;DHT22;9834;48.076;11.878;2023-04-03T02:42:17;2.30;99.90
19397;DHT22;9834;48.076;11.878;2023-04-03T02:44:44;2.30;99.90
19397;DHT22;9834;48.076;11.878;2023-04-03T02:47:12;2.30;99.90
19397;DHT22;9834;48.076;11.878;2023-04-03T02:49:39;2.20;99.90
19397;DHT22;9834;48.076;11.878;2023-04-03T02:52:07;2.30;99.90
19397;DHT22;9834;48.076;11.878;2023-04-03T02:54:34;2.30;99.90
19397;DHT22;9834;48.076;11.878;2023-04-03T02:57:02;2.30;99.90
19397;DHT22;9834;48.076;11.878;2023-04-03T02:59:30;2.30;99.90
19397;DHT22;9834;48.076;11.878;2023-04-03T03:01:58;2.40;99.90
19397;DHT22;9834;48.076;11.878;2023-04-03T03:04:25;2.40;99.90
19397;DHT22;9834;48.076;11.878;2023-04-03T03:06:53;2.40;99.90
19397;DHT22;9834;48.076;11.878;2023-04-03T03:09:20;2.30;99.90
19397;DHT22;9834;48.076;11.878;2023-04-03T03:11:48;2.30;99.90
19397;DHT22;9834;48.076;11.878;2023-04-03T03:14:15;2.40;99.90
19397;DHT22;9834;48.076;11.878;2023-04-03T03:16:43;2.40;99.90
19397;DHT22;9834;48.076;11.878;2023-04-03T03:19:11;2.40;99.90
19397;DHT22;9834;48.076;11.878;2023-04-03T03:21:38;2.40;99.90
19397;DHT22;9834;48.076;11.878;2023-04-03T03:24:06;2.30;99.90
19397;DHT22;9834;48.076;11.878;2023-04-03T03:26:34;2.30;99.90
19397;DHT22;9834;48.076;11.878;2023-04-03T03:29:02;2.30;99.90
19397;DHT22;9834;48.076;11.878;2023-04-03T03:31:29;2.30;99.90
19397;DHT22;9834;48.076;11.878;2023-04-03T03:33:58;2.30;99.90
19397;DHT22;9834;48.076;11.878;2023-04-03T03:36:26;2.30;99.90
19397;DHT22;9834;48.076;11.878;2023-04-03T03:38:53;2.30;99.90
19397;DHT22;9834;48.076;11.878;2023-04-03T03:41:21;2.30;99.90
19397;DHT22;9834;48.076;11.878;2023-04-03T03:43:48;2.30;99.90
19397;DHT22;9834;48.076;11.878;2023-04-03T03:46:16;2.30;99.90
19397;DHT22;9834;48.076;11.878;2023-04-03T03:48:44;2.30;99.90
19397;DHT22;9834;48.076;11.878;2023-04-03T03:51:12;2.30;99.90
19397;DHT22;9834;48.076;11.878;2023-04-03T03:53:40;2.30;99.90
19397;DHT22;9834;48.076;11.878;2023-04-03T03:56:07;2.30;99.90
19397;DHT22;9834;48.076;11.878;2023-04-03T03:58:35;2.20;99.90
19397;DHT22;9834;48.076;11.878;2023-04-03T04:01:04;2.20;99.90
19397;DHT22;9834;48.076;11.878;2023-04-03T04:03:32;2.20;99.90
19397;DHT22;9834;48.076;11.878;2023-04-03T04:05:59;2.20;99.90
19397;DHT22;9834;48.076;11.878;2023-04-03T04:08:28;2.30;99.90
19397;DHT22;9834;48.076;11.878;2023-04-03T04:10:55;2.20;99.90
19397;DHT22;9834;48.076;11.878;2023-04-03T04:13:23;2.20;99.90
19397;DHT22;9834;48.076;11.878;2023-04-03T04:15:50;2.20;99.90
19397;DHT22;9834;48.076;11.878;2023-04-03T04:18:17;2.20;99.90
19397;DHT22;9834;48.076;11.878;2023-04-03T04:20:46;2.20;99.90
19397;DHT22;9834;48.076;11.878;2023-04-03T04:23:13;2.30;99.90
19397;DHT22;9834;48.076;11.878;2023-04-03T04:25:44;2.20;99.90
19397;DHT22;9834;48.076;11.878;2023-04-03T04:28:12;2.20;99.90
19397;DHT22;9834;48.076;11.878;2023-04-03T04:30:39;2.30;99.90
19397;DHT22;9834;48.076;11.878;2023-04-03T04:33:07;2.20;99.90
19397;DHT22;9834;48.076;11.878;2023-04-03T04:35:35;2.20;99.90
19397;DHT22;9834;48.076;11.878;2023-04-03T04:38:02;2.30;99.90
19397;DHT22;9834;48.076;11.878;2023-04-03T04:40:30;2.30;99.90
19397;DHT22;9834;48.076;11.878;2023-04-03T04:42:59;2.30;99.90
19397;DHT22;9834;48.076;11.878;2023-04-03T04:45:27;2.30;99.90
19397;DHT22;9834;48.076;11.878;2023-04-03T04:47:55;2.30;99.90
19397;DHT22;9834;48.076;11.878;2023-04-03T04:50:23;2.30;99.90
19397;DHT22;9834;48.076;11.878;2023-04-03T04:52:50;2.30;99.90
19397;DHT22;9834;48.076;11.878;2023-04-03T04:55:18;2.30;99.90
19397;DHT22;9834;48.076;11.878;2023-04-03T04:57:46;2.30;99.90
19397;DHT22;9834;48.076;11.878;2023-04-03T05:00:16;2.30;99.90
19397;DHT22;9834;48.076;11.878;2023-04-03T05:02:44;2.30;99.90
19397;DHT22;9834;48.076;11.878;2023-04-03T05:05:11;2.40;99.90
19397;DHT22;9834;48.076;11.878;2023-04-03T05:07:39;2.40;99.90
19397;DHT22;9834;48.076;11.878;2023-04-03T05:10:08;2.40;99.90
19397;DHT22;9834;48.076;11.878;2023-04-03T05:12:36;2.40;99.90
19397;DHT22;9834;48.076;11.878;2023-04-03T05:15:04;2.40;99.90
19397;DHT22;9834;48.076;11.878;2023-04-03T05:17:33;2.40;99.90
19397;DHT22;9834;48.076;11.878;2023-04-03T05:20:01;2.40;99.90
19397;DHT22;9834;48.076;11.878;2023-04-03T05:22:32;2.40;99.90
19397;DHT22;9834;48.076;11.878;2023-04-03T05:25:00;2.40;99.90
19397;DHT22;9834;48.076;11.878;2023-04-03T05:27:27;2.40;99.90
19397;DHT22;9834;48.076;11.878;2023-04-03T05:29:55;2.40;99.90
19397;DHT22;9834;48.076;11.878;2023-04-03T05:32:24;2.40;99.90
19397;DHT22;9834;48.076;11.878;2023-04-03T05:34:54;2.30;99.90
19397;DHT22;9834;48.076;11.878;2023-04-03T05:37:22;2.40;99.90
19397;DHT22;9834;48.076;11.878;2023-04-03T05:39:50;2.40;99.90
19397;DHT22;9834;48.076;11.878;2023-04-03T05:42:17;2.40;99.90
19397;DHT22;9834;48.076;11.878;2023-04-03T05:44:45;2.40;99.90
19397;DHT22;9834;48.076;11.878;2023-04-03T05:47:13;2.30;99.90
19397;DHT22;9834;48.076;11.878;2023-04-03T05:49:40;2.30;99.90
19397;DHT22;9834;48.076;11.878;2023-04-03T05:52:21;2.30;99.90
19397;DHT22;9834;48.076;11.878;2023-04-03T05:54:48;2.40;99.90
19397;DHT22;9834;48.076;11.878;2023-04-03T05:57:16;2.50;99.90
19397;DHT22;9834;48.076;11.878;2023-04-03T05:59:44;2.40;99.90
19397;DHT22;9834;48.076;11.878;2023-04-03T06:02:14;2.50;99.90
19397;DHT22;9834;48.076;11.878;2023-04-03T06:04:41;2.50;99.90
19397;DHT22;9834;48.076;11.878;2023-04-03T06:07:12;2.50;99.90
19397;DHT22;9834;48.076;11.878;2023-04-03T06:09:42;2.50;99.90
19397;DHT22;9834;48.076;11.878;2023-04-03T06:12:09;2.50;99.90
19397;DHT22;9834;48.076;11.878;2023-04-03T06:14:37;2.50;99.90
19397;DHT22;9834;48.076;11.878;2023-04-03T06:17:05;2.60;99.90
19397;DHT22;9834;48.076;11.878;2023-04-03T06:19:32;2.60;99.90
19397;DHT22;9834;48.076;11.878;2023-04-03T06:21:59;2.70;99.90
19397;DHT22;9834;48.076;11.878;2023-04-03T06:24:30;2.80;99.90
19397;DHT22;9834;48.076;11.878;2023-04-03T06:26:58;2.80;99.90
19397;DHT22;9834;48.076;11.878;2023-04-03T06:29:25;3.00;99.90
19397;DHT22;9834;48.076;11.878;2023-04-03T06:31:52;3.00;99.90
19397;DHT22;9834;48.076;11.878;2023-04-03T06:34:20;3.00;99.90
19397;DHT22;9834;48.076;11.878;2023-04-03T06:36:48;3.00;99.90
19397;DHT22;9834;48.076;11.878;2023-04-03T06:39:18;3.10;99.90
19397;DHT22;9834;48.076;11.878;2023-04-03T06:41:48;3.10;99.90
19397;DHT22;9834;48.076;11.878;2023-04-03T06:44:15;3.20;99.90
19397;DHT22;9834;48.076;11.878;2023-04-03T06:46:44;3.10;99.90
19397;DHT22;9834;48.076;11.878;2023-04-03T06:49:12;3.10;99.90
19397;DHT22;9834;48.076;11.878;2023-04-03T06:51:40;3.10;99.90
19397;DHT22;9834;48.076;11.878;2023-04-03T06:54:08;3.10;99.90
19397;DHT22;9834;48.076;11.878;2023-04-03T06:56:35;3.10;99.90
19397;DHT22;9834;48.076;11.878;2023-04-03T06:59:04;3.20;99.90
19397;DHT22;9834;48.076;11.878;2023-04-03T07:01:32;3.30;99.90
19397;DHT22;9834;48.076;11.878;2023-04-03T07:03:59;3.50;99.90
19397;DHT22;9834;48.076;11.878;2023-04-03T07:06:27;3.60;99.90
19397;DHT22;9834;48.076;11.878;2023-04-03T07:08:55;3.60;99.90
19397;DHT22;9834;48.076;11.878;2023-04-03T07:11:25;3.60;99.90
19397;DHT22;9834;48.076;11.878;2023-04-03T07:13:52;3.50;99.90
19397;DHT22;9834;48.076;11.878;2023-04-03T07:16:22;3.60;99.90
19397;DHT22;9834;48.076;11.878;2023-04-03T07:18:49;3.70;99.90
19397;DHT22;9834;48.076;11.878;2023-04-03T07:21:17;3.80;99.90
19397;DHT22;9834;48.076;11.878;2023-04-03T07:23:44;3.90;99.90
19397;DHT22;9834;48.076;11.878;2023-04-03T07:26:12;3.90;99.90
19397;DHT22;9834;48.076;11.878;2023-04-03T07:28:39;3.90;99.90
19397;DHT22;9834;48.076;11.878;2023-04-03T07:31:09;4.00;99.90
19397;DHT22;9834;48.076;11.878;2023-04-03T07:33:39;4.00;99.90
19397;DHT22;9834;48.076;11.878;2023-04-03T07:36:08;4.00;99.90
19397;DHT22;9834;48.076;11.878;2023-04-03T07:38:36;4.10;99.90
19397;DHT22;9834;48.076;11.878;2023-04-03T07:41:04;4.00;99.90
19397;DHT22;9834;48.076;11.878;2023-04-03T07:43:32;4.00;99.90
19397;DHT22;9834;48.076;11.878;2023-04-03T07:46:00;4.00;99.90
19397;DHT22;9834;48.076;11.878;2023-04-03T07:48:28;4.00;99.90
19397;DHT22;9834;48.076;11.878;2023-04-03T07:51:00;4.00;99.90
19397;DHT22;9834;48.076;11.878;2023-04-03T07:53:29;4.00;99.90
19397;DHT22;9834;48.076;11.878;2023-04-03T07:55:57;4.10;99.90
19397;DHT22;9834;48.076;11.878;2023-04-03T07:58:25;4.20;99.90
19397;DHT22;9834;48.076;11.878;2023-04-03T08:00:52;4.20;99.90
19397;DHT22;9834;48.076;11.878;2023-04-03T08:03:20;4.30;99.90
19397;DHT22;9834;48.076;11.878;2023-04-03T08:05:49;4.30;99.90
19397;DHT22;9834;48.076;11.878;2023-04-03T08:08:20;4.40;99.90
19397;DHT22;9834;48.076;11.878;2023-04-03T08:10:49;4.40;99.90
19397;DHT22;9834;48.076;11.878;2023-04-03T08:13:17;4.60;99.90
19397;DHT22;9834;48.076;11.878;2023-04-03T08:15:45;4.70;99.90
19397;DHT22;9834;48.076;11.878;2023-04-03T08:18:12;4.80;99.90
19397;DHT22;9834;48.076;11.878;2023-04-03T08:20:40;4.90;99.90
19397;DHT22;9834;48.076;11.878;2023-04-03T08:23:08;5.10;99.90
19397;DHT22;9834;48.076;11.878;2023-04-03T08:25:40;5.10;99.90
19397;DHT22;9834;48.076;11.878;2023-04-03T08:28:08;5.10;99.90
19397;DHT22;9834;48.076;11.878;2023-04-03T08:30:35;5.10;99.90
19397;DHT22;9834;48.076;11.878;2023-04-03T08:33:03;5.40;99.90
19397;DHT22;9834;48.076;11.878;2023-04-03T08:35:31;5.50;99.90
19397;DHT22;9834;48.076;11.878;2023-04-03T08:37:59;5.40;99.90
19397;DHT22;9834;48.076;11.878;2023-04-03T08:40:26;5.20;99.90
19397;DHT22;9834;48.076;11.878;2023-04-03T08:43:03;5.30;99.90
19397;DHT22;9834;48.076;11.878;2023-04-03T08:45:43;5.20;99.90
19397;DHT22;9834;48.076;11.878;2023-04-03T08:48:15;5.30;99.90
19397;DHT22;9834;48.076;11.878;2023-04-03T08:50:47;5.60;99.90
19397;DHT22;9834;48.076;11.878;2023-04-03T08:53:17;5.80;99.90
19397;DHT22;9834;48.076;11.878;2023-04-03T08:55:46;6.00;99.90
19397;DHT22;9834;48.076;11.878;2023-04-03T08:58:19;6.00;99.90
19397;DHT22;9834;48.076;11.878;2023-04-03T09:00:49;5.90;99.90
19397;DHT22;9834;48.076;11.878;2023-04-03T09:03:19;6.00;99.90
19397;DHT22;9834;48.076;11.878;2023-04-03T09:05:49;5.90;99.90
19397;DHT22;9834;48.076;11.878;2023-04-03T09:08:23;6.00;99.90
19397;DHT22;9834;48.076;11.878;2023-04-03T09:10:58;6.20;99.90
19397;DHT22;9834;48.076;11.878;2023-04-03T09:13:32;6.40;99.90
19397;DHT22;9834;48.076;11.878;2023-04-03T09:16:04;6.50;99.90
19397;DHT22;9834;48.076;11.878;2023-04-03T09:18:36;6.80;99.90
19397;DHT22;9834;48.076;11.878;2023-04-03T09:21:12;6.70;99.90
19397;DHT22;9834;48.076;11.878;2023-04-03T09:23:46;6.60;99.90
19397;DHT22;9834;48.076;11.878;2023-04-03T09:26:18;6.60;99.90
19397;DHT22;9834;48.076;11.878;2023-04-03T09:28:48;6.50;99.90
19397;DHT22;9834;48.076;11.878;2023-04-03T09:31:21;6.60;99.90
19397;DHT22;9834;48.076;11.878;2023-04-03T09:33:50;6.50;99.90
19397;DHT22;9834;48.076;11.878;2023-04-03T09:36:40;6.30;99.90
19397;DHT22;9834;48.076;11.878;2023-04-03T09:39:12;6.30;99.90
19397;DHT22;9834;48.076;11.878;2023-04-03T09:41:40;6.30;99.90
19397;DHT22;9834;48.076;11.878;2023-04-03T09:44:21;6.40;99.90
19397;DHT22;9834;48.076;11.878;2023-04-03T09:46:49;6.60;99.90
19397;DHT22;9834;48.076;11.878;2023-04-03T09:49:18;6.80;99.90
19397;DHT22;9834;48.076;11.878;2023-04-03T09:51:46;7.00;99.90
19397;DHT22;9834;48.076;11.878;2023-04-03T09:54:33;7.00;99.90
19397;DHT22;9834;48.076;11.878;2023-04-03T09:57:06;6.70;99.90
19397;DHT22;9834;48.076;11.878;2023-04-03T09:59:37;6.60;99.90
19397;DHT22;9834;48.076;11.878;2023-04-03T10:02:22;6.70;99.90
19397;DHT22;9834;48.076;11.878;2023-04-03T10:04:51;6.60;99.90
19397;DHT22;9834;48.076;11.878;2023-04-03T10:07:31;6.70;99.90
19397;DHT22;9834;48.076;11.878;2023-04-03T10:10:00;6.80;99.90
19397;DHT22;9834;48.076;11.878;2023-04-03T10:12:29;6.80;98.50
19397;DHT22;9834;48.076;11.878;2023-04-03T10:15:00;7.00;99.90
19397;DHT22;9834;48.076;11.878;2023-04-03T10:17:37;7.20;98.00
19397;DHT22;9834;48.076;11.878;2023-04-03T10:20:23;7.30;96.30
19397;DHT22;9834;48.076;11.878;2023-04-03T10:23:00;7.30;97.00
19397;DHT22;9834;48.076;11.878;2023-04-03T10:25:35;7.10;95.30
19397;DHT22;9834;48.076;11.878;2023-04-03T10:28:06;7.10;94.70
19397;DHT22;9834;48.076;11.878;2023-04-03T10:30:42;7.30;97.10
19397;DHT22;9834;48.076;11.878;2023-04-03T10:33:23;7.10;93.60
19397;DHT22;9834;48.076;11.878;2023-04-03T10:36:02;6.70;92.00
19397;DHT22;9834;48.076;11.878;2023-04-03T10:38:43;6.50;94.40
19397;DHT22;9834;48.076;11.878;2023-04-03T10:41:17;6.10;96.70
19397;DHT22;9834;48.076;11.878;2023-04-03T10:43:55;5.80;99.90
19397;DHT22;9834;48.076;11.878;2023-04-03T10:46:33;5.10;99.90
19397;DHT22;9834;48.076;11.878;2023-04-03T10:49:17;4.60;99.90
19397;DHT22;9834;48.076;11.878;2023-04-03T10:51:48;4.30;99.90
19397;DHT22;9834;48.076;11.878;2023-04-03T10:54:22;3.90;99.90
19397;DHT22;9834;48.076;11.878;2023-04-03T10:56:54;3.80;99.90
19397;DHT22;9834;48.076;11.878;2023-04-03T10:59:26;3.90;99.90
19397;DHT22;9834;48.076;11.878;2023-04-03T11:01:59;4.00;99.90
19397;DHT22;9834;48.076;11.878;2023-04-03T11:04:29;4.30;99.90
19397;DHT22;9834;48.076;11.878;2023-04-03T11:07:01;4.60;99.90
19397;DHT22;9834;48.076;11.878;2023-04-03T11:09:32;4.90;99.90
19397;DHT22;9834;48.076;11.878;2023-04-03T11:12:04;5.10;99.90
19397;DHT22;9834;48.076;11.878;2023-04-03T11:14:35;5.40;99.90
19397;DHT22;9834;48.076;11.878;2023-04-03T11:17:15;5.60;99.90
19397;DHT22;9834;48.076;11.878;2023-04-03T11:19:50;5.60;99.90
19397;DHT22;9834;48.076;11.878;2023-04-03T11:22:23;5.20;99.90
19397;DHT22;9834;48.076;11.878;2023-04-03T11:24:59;4.90;99.90
19397;DHT22;9834;48.076;11.878;2023-04-03T11:27:35;4.70;99.90
19397;DHT22;9834;48.076;11.878;2023-04-03T11:30:07;4.60;99.90
19397;DHT22;9834;48.076;11.878;2023-04-03T11:32:53;4.60;99.90
19397;DHT22;9834;48.076;11.878;2023-04-03T11:35:23;4.60;99.90
19397;DHT22;9834;48.076;11.878;2023-04-03T11:37:53;4.60;99.90
19397;DHT22;9834;48.076;11.878;2023-04-03T11:40:24;4.60;99.90
19397;DHT22;9834;48.076;11.878;2023-04-03T11:42:55;4.70;99.90
19397;DHT22;9834;48.076;11.878;2023-04-03T11:45:36;4.80;99.90
19397;DHT22;9834;48.076;11.878;2023-04-03T11:48:06;4.80;99.90
19397;DHT22;9834;48.076;11.878;2023-04-03T11:50:42;4.90;99.90
19397;DHT22;9834;48.076;11.878;2023-04-03T11:53:29;5.00;99.90
19397;DHT22;9834;48.076;11.878;2023-04-03T11:55:58;5.00;99.90
19397;DHT22;9834;48.076;11.878;2023-04-03T11:58:28;5.10;99.90
19397;DHT22;9834;48.076;11.878;2023-04-03T12:01:18;5.30;99.90
19397;DHT22;9834;48.076;11.878;2023-04-03T12:04:09;5.60;99.90
19397;DHT22;9834;48.076;11.878;2023-04-03T12:09:58;6.30;99.90
19397;DHT22;9834;48.076;11.878;2023-04-03T12:12:33;6.50;99.90
19397;DHT22;9834;48.076;11.878;2023-04-03T12:15:19;6.70;99.90
19397;DHT22;9834;48.076;11.878;2023-04-03T12:17:48;6.80;99.90
19397;DHT22;9834;48.076;11.878;2023-04-03T12:20:54;7.20;99.90
19397;DHT22;9834;48.076;11.878;2023-04-03T12:23:30;7.60;99.90
19397;DHT22;9834;48.076;11.878;2023-04-03T12:26:19;7.60;99.50
19397;DHT22;9834;48.076;11.878;2023-04-03T12:28:48;7.60;93.60
19397;DHT22;9834;48.076;11.878;2023-04-03T12:31:19;7.80;93.80
19397;DHT22;9834;48.076;11.878;2023-04-03T12:34:05;8.20;94.60
19397;DHT22;9834;48.076;11.878;2023-04-03T12:36:45;8.40;92.40
19397;DHT22;9834;48.076;11.878;2023-04-03T12:39:42;9.30;91.60
19397;DHT22;9834;48.076;11.878;2023-04-03T12:42:29;10.00;85.80
19397;DHT22;9834;48.076;11.878;2023-04-03T12:45:02;10.40;78.70
19397;DHT22;9834;48.076;11.878;2023-04-03T12:47:35;10.60;81.90
19397;DHT22;9834;48.076;11.878;2023-04-03T12:50:16;10.40;72.80
19397;DHT22;9834;48.076;11.878;2023-04-03T12:52:52;10.30;73.70
19397;DHT22;9834;48.076;11.878;2023-04-03T12:55:22;11.10;70.10
19397;DHT22;9834;48.076;11.878;2023-04-03T12:57:49;11.30;70.50
19397;DHT22;9834;48.076;11.878;2023-04-03T13:00:25;11.20;71.00
19397;DHT22;9834;48.076;11.878;2023-04-03T13:02:53;11.20;69.90
19397;DHT22;9834;48.076;11.878;2023-04-03T13:05:22;10.80;69.30
19397;DHT22;9834;48.076;11.878;2023-04-03T13:07:54;10.50;70.80
19397;DHT22;9834;48.076;11.878;2023-04-03T13:10:24;11.00;64.40
19397;DHT22;9834;48.076;11.878;2023-04-03T13:12:53;11.10;68.10
19397;DHT22;9834;48.076;11.878;2023-04-03T13:15:24;11.20;63.60
19397;DHT22;9834;48.076;11.878;2023-04-03T13:17:52;11.60;66.80
19397;DHT22;9834;48.076;11.878;2023-04-03T13:20:23;12.20;66.70
19397;DHT22;9834;48.076;11.878;2023-04-03T13:22:56;12.90;63.30
19397;DHT22;9834;48.076;11.878;2023-04-03T13:25:29;14.80;58.80
19397;DHT22;9834;48.076;11.878;2023-04-03T13:27:58;15.40;53.20
19397;DHT22;9834;48.076;11.878;2023-04-03T13:30:29;15.00;53.20
19397;DHT22;9834;48.076;11.878;2023-04-03T13:32:59;14.30;52.00
19397;DHT22;9834;48.076;11.878;2023-04-03T13:35:33;13.40;53.00
19397;DHT22;9834;48.076;11.878;2023-04-03T13:38:05;12.50;49.80
19397;DHT22;9834;48.076;11.878;2023-04-03T13:40:33;12.70;51.80
19397;DHT22;9834;48.076;11.878;2023-04-03T13:43:18;12.80;48.00
19397;DHT22;9834;48.076;11.878;2023-04-03T13:45:56;13.30;48.90
19397;DHT22;9834;48.076;11.878;2023-04-03T13:48:24;13.70;49.10
19397;DHT22;9834;48.076;11.878;2023-04-03T13:50:58;12.80;50.00
19397;DHT22;9834;48.076;11.878;2023-04-03T13:53:30;11.10;54.30
19397;DHT22;9834;48.076;11.878;2023-04-03T13:56:05;10.00;54.30
19397;DHT22;9834;48.076;11.878;2023-04-03T13:58:34;9.00;56.20
19397;DHT22;9834;48.076;11.878;2023-04-03T14:01:08;8.20;59.30
19397;DHT22;9834;48.076;11.878;2023-04-03T14:03:42;7.80;59.80
19397;DHT22;9834;48.076;11.878;2023-04-03T14:06:13;7.40;61.10
19397;DHT22;9834;48.076;11.878;2023-04-03T14:08:42;7.40;61.30
19397;DHT22;9834;48.076;11.878;2023-04-03T14:11:13;7.50;62.10
19397;DHT22;9834;48.076;11.878;2023-04-03T14:13:42;7.60;62.90
19397;DHT22;9834;48.076;11.878;2023-04-03T14:16:14;7.50;64.10
19397;DHT22;9834;48.076;11.878;2023-04-03T14:18:43;7.20;64.50
19397;DHT22;9834;48.076;11.878;2023-04-03T14:21:11;7.30;63.30
19397;DHT22;9834;48.076;11.878;2023-04-03T14:23:39;7.10;64.10
19397;DHT22;9834;48.076;11.878;2023-04-03T14:26:11;7.30;62.90
19397;DHT22;9834;48.076;11.878;2023-04-03T14:28:40;7.30;62.30
19397;DHT22;9834;48.076;11.878;2023-04-03T14:31:08;7.30;62.30
19397;DHT22;9834;48.076;11.878;2023-04-03T14:33:36;7.20;62.90
19397;DHT22;9834;48.076;11.878;2023-04-03T14:36:12;7.30;62.50
19397;DHT22;9834;48.076;11.878;2023-04-03T14:38:41;7.30;61.70
19397;DHT22;9834;48.076;11.878;2023-04-03T14:41:12;7.40;59.40
19397;DHT22;9834;48.076;11.878;2023-04-03T14:43:41;7.50;59.50
19397;DHT22;9834;48.076;11.878;2023-04-03T14:46:13;7.60;59.90
19397;DHT22;9834;48.076;11.878;2023-04-03T14:48:41;7.90;59.30
19397;DHT22;9834;48.076;11.878;2023-04-03T14:51:10;8.10;57.00
19397;DHT22;9834;48.076;11.878;2023-04-03T14:53:38;8.20;57.70
19397;DHT22;9834;48.076;11.878;2023-04-03T14:56:13;8.30;54.50
19397;DHT22;9834;48.076;11.878;2023-04-03T14:58:41;8.70;55.80
19397;DHT22;9834;48.076;11.878;2023-04-03T15:01:10;9.10;54.80
19397;DHT22;9834;48.076;11.878;2023-04-03T15:03:38;9.60;53.80
19397;DHT22;9834;48.076;11.878;2023-04-03T15:06:06;9.70;52.20
19397;DHT22;9834;48.076;11.878;2023-04-03T15:08:33;9.90;52.30
19397;DHT22;9834;48.076;11.878;2023-04-03T15:11:01;10.00;52.00
19397;DHT22;9834;48.076;11.878;2023-04-03T15:13:30;10.00;53.10
19397;DHT22;9834;48.076;11.878;2023-04-03T15:15:57;10.20;49.80
19397;DHT22;9834;48.076;11.878;2023-04-03T15:18:26;10.30;49.60
19397;DHT22;9834;48.076;11.878;2023-04-03T15:20:54;10.50;49.70
19397;DHT22;9834;48.076;11.878;2023-04-03T15:23:22;10.10;50.80
19397;DHT22;9834;48.076;11.878;2023-04-03T15:25:52;9.50;52.40
19397;DHT22;9834;48.076;11.878;2023-04-03T15:28:25;9.10;51.90
19397;DHT22;9834;48.076;11.878;2023-04-03T15:30:55;8.80;53.30
19397;DHT22;9834;48.076;11.878;2023-04-03T15:33:23;8.30;53.00
19397;DHT22;9834;48.076;11.878;2023-04-03T15:35:51;8.30;52.60
19397;DHT22;9834;48.076;11.878;2023-04-03T15:38:19;8.20;54.40
19397;DHT22;9834;48.076;11.878;2023-04-03T15:40:46;8.10;55.30
19397;DHT22;9834;48.076;11.878;2023-04-03T15:43:14;8.00;53.10
19397;DHT22;9834;48.076;11.878;2023-04-03T15:45:43;7.80;52.40
19397;DHT22;9834;48.076;11.878;2023-04-03T15:48:12;7.80;53.20
19397;DHT22;9834;48.076;11.878;2023-04-03T15:50:40;7.80;53.40
19397;DHT22;9834;48.076;11.878;2023-04-03T15:53:08;7.70;53.20
19397;DHT22;9834;48.076;11.878;2023-04-03T15:55:37;7.70;54.50
19397;DHT22;9834;48.076;11.878;2023-04-03T15:58:04;7.60;54.40
19397;DHT22;9834;48.076;11.878;2023-04-03T16:00:32;7.50;53.80
19397;DHT22;9834;48.076;11.878;2023-04-03T16:03:05;7.30;53.50
19397;DHT22;9834;48.076;11.878;2023-04-03T16:05:35;7.30;54.90
19397;DHT22;9834;48.076;11.878;2023-04-03T16:08:04;7.20;53.80
19397;DHT22;9834;48.076;11.878;2023-04-03T16:10:33;7.00;55.00
19397;DHT22;9834;48.076;11.878;2023-04-03T16:13:01;6.90;54.10